Terminal Aerodrome Forecast
Issued by NWS Billings, MT

Home | Current Version | Previous Version | Text Only | Print | Product List | Glossary On
Versions: 1 2 3 4 5 6 7 8 9 10 11 12 13 14 15 16 17 18 19 20 21 22 23 24
259
FTUS45 KBYZ 280536
TAFBIL
TAF
KBIL 280536Z 2806/2906 34011KT 6SM -SHRA SCT015 OVC035
     FM281600 32010KT P6SM VCSH SCT030 BKN050
     FM281900 31010KT P6SM SCT050 BKN100=

USA.gov is the U.S. government's official web portal to all federal, state and local government web resources and services.